Terminal Aerodrome Forecast
Issued by NWS Billings, MT

Home | Current Version | Previous Version | Graphics & Text | Print | Product List | Glossary On
Versions: 1 2 3 4 5 6 7 8 9 10 11 12 13 14 15 16 17 18 19 20 21 22 23 24 25 26 27 28
000
FTUS45 KBYZ 210535
TAFMLS
TAF
KMLS 210535Z 2106/2206 05012KT P6SM VCSH SCT030 OVC070
     FM210800 06012KT 4SM -SN BR SCT020 OVC030
     FM211600 10018KT P6SM SCT020 BKN040=

USA.gov is the U.S. government's official web portal to all federal, state and local government web resources and services.